sensor_id;sensor_type;location;lat;lon;timestamp;P1;durP1;ratioP1;P2;durP2;ratioP2
21272;SDS011;36726;52.328;10.552;2023-05-07T00:00:21;19.58;;;11.73;;
21272;SDS011;36726;52.328;10.552;2023-05-07T00:02:47;17.90;;;11.38;;
21272;SDS011;36726;52.328;10.552;2023-05-07T00:05:14;20.95;;;11.82;;
21272;SDS011;36726;52.328;10.552;2023-05-07T00:07:42;20.23;;;12.10;;
21272;SDS011;36726;52.328;10.552;2023-05-07T00:10:09;18.90;;;11.77;;
21272;SDS011;36726;52.328;10.552;2023-05-07T00:12:37;20.10;;;11.75;;
21272;SDS011;36726;52.328;10.552;2023-05-07T00:15:04;19.25;;;12.65;;
21272;SDS011;36726;52.328;10.552;2023-05-07T00:17:32;19.08;;;11.07;;
21272;SDS011;36726;52.328;10.552;2023-05-07T00:19:59;20.67;;;11.60;;
21272;SDS011;36726;52.328;10.552;2023-05-07T00:22:26;18.25;;;11.10;;
21272;SDS011;36726;52.328;10.552;2023-05-07T00:24:52;19.63;;;10.98;;
21272;SDS011;36726;52.328;10.552;2023-05-07T00:27:19;20.13;;;11.48;;
21272;SDS011;36726;52.328;10.552;2023-05-07T00:29:45;21.05;;;11.80;;
21272;SDS011;36726;52.328;10.552;2023-05-07T00:32:12;18.02;;;10.85;;
21272;SDS011;36726;52.328;10.552;2023-05-07T00:34:39;19.77;;;11.07;;
21272;SDS011;36726;52.328;10.552;2023-05-07T00:37:05;17.33;;;10.80;;
21272;SDS011;36726;52.328;10.552;2023-05-07T00:39:33;16.90;;;10.50;;
21272;SDS011;36726;52.328;10.552;2023-05-07T00:42:00;14.30;;;9.07;;
21272;SDS011;36726;52.328;10.552;2023-05-07T00:44:26;14.13;;;8.38;;
21272;SDS011;36726;52.328;10.552;2023-05-07T00:46:54;11.98;;;8.60;;
21272;SDS011;36726;52.328;10.552;2023-05-07T00:49:22;14.75;;;8.43;;
21272;SDS011;36726;52.328;10.552;2023-05-07T00:51:50;12.23;;;8.32;;
21272;SDS011;36726;52.328;10.552;2023-05-07T00:54:17;12.43;;;8.35;;
21272;SDS011;36726;52.328;10.552;2023-05-07T00:56:43;11.00;;;7.93;;
21272;SDS011;36726;52.328;10.552;2023-05-07T00:59:11;13.57;;;7.18;;
21272;SDS011;36726;52.328;10.552;2023-05-07T01:01:37;13.27;;;7.05;;
21272;SDS011;36726;52.328;10.552;2023-05-07T01:04:04;9.85;;;6.88;;
21272;SDS011;36726;52.328;10.552;2023-05-07T01:06:31;11.60;;;7.07;;
21272;SDS011;36726;52.328;10.552;2023-05-07T01:08:59;9.48;;;6.50;;
21272;SDS011;36726;52.328;10.552;2023-05-07T01:11:26;10.07;;;7.07;;
21272;SDS011;36726;52.328;10.552;2023-05-07T01:13:54;9.93;;;6.32;;
21272;SDS011;36726;52.328;10.552;2023-05-07T01:16:20;10.43;;;6.75;;
21272;SDS011;36726;52.328;10.552;2023-05-07T01:18:48;10.50;;;6.35;;
21272;SDS011;36726;52.328;10.552;2023-05-07T01:21:15;10.20;;;6.75;;
21272;SDS011;36726;52.328;10.552;2023-05-07T01:23:44;11.55;;;6.60;;
21272;SDS011;36726;52.328;10.552;2023-05-07T01:26:11;11.15;;;6.93;;
21272;SDS011;36726;52.328;10.552;2023-05-07T01:28:38;10.85;;;6.55;;
21272;SDS011;36726;52.328;10.552;2023-05-07T01:31:04;9.80;;;6.78;;
21272;SDS011;36726;52.328;10.552;2023-05-07T01:33:34;10.10;;;6.28;;
21272;SDS011;36726;52.328;10.552;2023-05-07T01:36:02;8.88;;;6.13;;
21272;SDS011;36726;52.328;10.552;2023-05-07T01:38:34;8.82;;;6.22;;
21272;SDS011;36726;52.328;10.552;2023-05-07T01:41:02;9.18;;;6.55;;
21272;SDS011;36726;52.328;10.552;2023-05-07T01:43:29;9.23;;;6.20;;
21272;SDS011;36726;52.328;10.552;2023-05-07T01:45:57;9.38;;;6.47;;
21272;SDS011;36726;52.328;10.552;2023-05-07T01:48:25;10.45;;;6.60;;
21272;SDS011;36726;52.328;10.552;2023-05-07T01:50:52;8.55;;;6.22;;
21272;SDS011;36726;52.328;10.552;2023-05-07T01:53:20;9.70;;;5.72;;
21272;SDS011;36726;52.328;10.552;2023-05-07T01:55:46;8.38;;;5.93;;
21272;SDS011;36726;52.328;10.552;2023-05-07T01:58:14;10.55;;;6.38;;
21272;SDS011;36726;52.328;10.552;2023-05-07T02:00:40;10.05;;;4.80;;
21272;SDS011;36726;52.328;10.552;2023-05-07T02:03:07;8.45;;;5.43;;
21272;SDS011;36726;52.328;10.552;2023-05-07T02:05:44;7.30;;;5.28;;
21272;SDS011;36726;52.328;10.552;2023-05-07T02:08:37;9.77;;;5.47;;
21272;SDS011;36726;52.328;10.552;2023-05-07T02:11:04;9.82;;;5.63;;
21272;SDS011;36726;52.328;10.552;2023-05-07T02:13:33;8.88;;;5.47;;
21272;SDS011;36726;52.328;10.552;2023-05-07T02:16:01;9.45;;;5.40;;
21272;SDS011;36726;52.328;10.552;2023-05-07T02:18:28;7.93;;;5.18;;
21272;SDS011;36726;52.328;10.552;2023-05-07T02:20:55;8.10;;;5.28;;
21272;SDS011;36726;52.328;10.552;2023-05-07T02:23:22;7.35;;;4.90;;
21272;SDS011;36726;52.328;10.552;2023-05-07T02:25:49;9.40;;;5.38;;
21272;SDS011;36726;52.328;10.552;2023-05-07T02:28:16;7.20;;;5.32;;
21272;SDS011;36726;52.328;10.552;2023-05-07T02:30:49;8.73;;;5.80;;
21272;SDS011;36726;52.328;10.552;2023-05-07T02:33:17;8.70;;;5.45;;
21272;SDS011;36726;52.328;10.552;2023-05-07T02:35:43;9.98;;;5.68;;
21272;SDS011;36726;52.328;10.552;2023-05-07T02:38:12;9.80;;;5.90;;
21272;SDS011;36726;52.328;10.552;2023-05-07T02:40:39;7.57;;;5.38;;
21272;SDS011;36726;52.328;10.552;2023-05-07T02:43:06;9.02;;;5.28;;
21272;SDS011;36726;52.328;10.552;2023-05-07T02:45:33;8.77;;;5.63;;
21272;SDS011;36726;52.328;10.552;2023-05-07T02:48:01;9.65;;;6.60;;
21272;SDS011;36726;52.328;10.552;2023-05-07T02:50:28;10.70;;;6.00;;
21272;SDS011;36726;52.328;10.552;2023-05-07T02:52:54;9.70;;;6.20;;
21272;SDS011;36726;52.328;10.552;2023-05-07T02:55:21;7.90;;;5.75;;
21272;SDS011;36726;52.328;10.552;2023-05-07T02:57:48;9.55;;;6.22;;
21272;SDS011;36726;52.328;10.552;2023-05-07T03:00:15;8.20;;;5.38;;
21272;SDS011;36726;52.328;10.552;2023-05-07T03:02:57;9.88;;;6.43;;
21272;SDS011;36726;52.328;10.552;2023-05-07T03:05:23;12.65;;;5.93;;
21272;SDS011;36726;52.328;10.552;2023-05-07T03:07:50;10.55;;;5.88;;
21272;SDS011;36726;52.328;10.552;2023-05-07T03:10:16;8.18;;;5.72;;
21272;SDS011;36726;52.328;10.552;2023-05-07T03:12:43;7.68;;;5.40;;
21272;SDS011;36726;52.328;10.552;2023-05-07T03:15:14;9.40;;;6.25;;
21272;SDS011;36726;52.328;10.552;2023-05-07T03:17:40;8.48;;;5.47;;
21272;SDS011;36726;52.328;10.552;2023-05-07T03:20:07;10.18;;;6.13;;
21272;SDS011;36726;52.328;10.552;2023-05-07T03:22:36;9.63;;;6.30;;
21272;SDS011;36726;52.328;10.552;2023-05-07T03:25:03;10.35;;;6.68;;
21272;SDS011;36726;52.328;10.552;2023-05-07T03:27:30;9.75;;;6.82;;
21272;SDS011;36726;52.328;10.552;2023-05-07T03:29:57;14.68;;;7.68;;
21272;SDS011;36726;52.328;10.552;2023-05-07T03:32:23;11.75;;;6.65;;
21272;SDS011;36726;52.328;10.552;2023-05-07T03:34:50;10.10;;;7.63;;
21272;SDS011;36726;52.328;10.552;2023-05-07T03:37:18;12.60;;;6.70;;
21272;SDS011;36726;52.328;10.552;2023-05-07T03:39:44;9.63;;;6.47;;
21272;SDS011;36726;52.328;10.552;2023-05-07T03:42:11;9.93;;;6.78;;
21272;SDS011;36726;52.328;10.552;2023-05-07T03:44:38;10.50;;;7.05;;
21272;SDS011;36726;52.328;10.552;2023-05-07T03:47:05;11.63;;;6.95;;
21272;SDS011;36726;52.328;10.552;2023-05-07T03:49:31;11.10;;;6.68;;
21272;SDS011;36726;52.328;10.552;2023-05-07T03:51:59;10.93;;;7.40;;
21272;SDS011;36726;52.328;10.552;2023-05-07T03:54:25;10.65;;;7.43;;
21272;SDS011;36726;52.328;10.552;2023-05-07T03:56:52;12.30;;;6.65;;
21272;SDS011;36726;52.328;10.552;2023-05-07T03:59:18;9.18;;;6.47;;
21272;SDS011;36726;52.328;10.552;2023-05-07T04:01:46;9.55;;;6.50;;
21272;SDS011;36726;52.328;10.552;2023-05-07T04:04:17;11.88;;;6.50;;
21272;SDS011;36726;52.328;10.552;2023-05-07T04:06:44;9.05;;;6.22;;
21272;SDS011;36726;52.328;10.552;2023-05-07T04:09:10;8.82;;;6.10;;
21272;SDS011;36726;52.328;10.552;2023-05-07T04:11:37;10.05;;;6.15;;
21272;SDS011;36726;52.328;10.552;2023-05-07T04:14:08;8.20;;;5.95;;
21272;SDS011;36726;52.328;10.552;2023-05-07T04:16:35;8.05;;;5.88;;
21272;SDS011;36726;52.328;10.552;2023-05-07T04:19:03;8.93;;;6.53;;
21272;SDS011;36726;52.328;10.552;2023-05-07T04:21:30;8.68;;;5.82;;
21272;SDS011;36726;52.328;10.552;2023-05-07T04:23:57;8.45;;;6.22;;
21272;SDS011;36726;52.328;10.552;2023-05-07T04:26:24;8.80;;;6.45;;
21272;SDS011;36726;52.328;10.552;2023-05-07T04:28:51;9.18;;;6.00;;
21272;SDS011;36726;52.328;10.552;2023-05-07T04:31:17;9.95;;;6.70;;
21272;SDS011;36726;52.328;10.552;2023-05-07T04:33:48;12.27;;;6.82;;
21272;SDS011;36726;52.328;10.552;2023-05-07T04:36:15;8.30;;;6.28;;
21272;SDS011;36726;52.328;10.552;2023-05-07T04:38:48;9.63;;;6.22;;
21272;SDS011;36726;52.328;10.552;2023-05-07T04:41:16;9.43;;;6.43;;
21272;SDS011;36726;52.328;10.552;2023-05-07T04:43:43;8.32;;;6.15;;
21272;SDS011;36726;52.328;10.552;2023-05-07T04:46:11;10.18;;;6.40;;
21272;SDS011;36726;52.328;10.552;2023-05-07T04:48:38;8.90;;;6.30;;
21272;SDS011;36726;52.328;10.552;2023-05-07T04:51:06;10.05;;;6.47;;
21272;SDS011;36726;52.328;10.552;2023-05-07T04:53:32;10.65;;;6.88;;
21272;SDS011;36726;52.328;10.552;2023-05-07T04:55:59;8.80;;;6.32;;
21272;SDS011;36726;52.328;10.552;2023-05-07T04:58:31;7.63;;;5.85;;
21272;SDS011;36726;52.328;10.552;2023-05-07T05:00:58;8.57;;;6.38;;
21272;SDS011;36726;52.328;10.552;2023-05-07T05:03:25;10.15;;;7.07;;
21272;SDS011;36726;52.328;10.552;2023-05-07T05:05:52;10.13;;;6.82;;
21272;SDS011;36726;52.328;10.552;2023-05-07T05:08:21;8.18;;;5.93;;
21272;SDS011;36726;52.328;10.552;2023-05-07T05:10:47;8.32;;;5.78;;
21272;SDS011;36726;52.328;10.552;2023-05-07T05:13:16;7.43;;;5.78;;
21272;SDS011;36726;52.328;10.552;2023-05-07T05:15:43;9.30;;;5.70;;
21272;SDS011;36726;52.328;10.552;2023-05-07T05:18:10;9.10;;;6.13;;
21272;SDS011;36726;52.328;10.552;2023-05-07T05:20:38;8.68;;;6.25;;
21272;SDS011;36726;52.328;10.552;2023-05-07T05:23:05;10.30;;;5.80;;
21272;SDS011;36726;52.328;10.552;2023-05-07T05:25:32;9.40;;;5.85;;
21272;SDS011;36726;52.328;10.552;2023-05-07T05:28:00;8.57;;;5.95;;
21272;SDS011;36726;52.328;10.552;2023-05-07T05:30:28;8.52;;;5.95;;
21272;SDS011;36726;52.328;10.552;2023-05-07T05:32:54;9.90;;;6.22;;
21272;SDS011;36726;52.328;10.552;2023-05-07T05:35:21;8.20;;;5.80;;
21272;SDS011;36726;52.328;10.552;2023-05-07T05:37:48;8.82;;;6.13;;
21272;SDS011;36726;52.328;10.552;2023-05-07T05:40:16;9.38;;;6.32;;
21272;SDS011;36726;52.328;10.552;2023-05-07T05:42:42;8.65;;;6.35;;
21272;SDS011;36726;52.328;10.552;2023-05-07T05:45:09;9.10;;;6.10;;
21272;SDS011;36726;52.328;10.552;2023-05-07T05:47:37;10.02;;;6.45;;
21272;SDS011;36726;52.328;10.552;2023-05-07T05:50:06;8.40;;;6.07;;
21272;SDS011;36726;52.328;10.552;2023-05-07T05:52:33;9.45;;;6.70;;
21272;SDS011;36726;52.328;10.552;2023-05-07T05:55:00;8.10;;;6.45;;
21272;SDS011;36726;52.328;10.552;2023-05-07T05:57:27;12.30;;;7.38;;
21272;SDS011;36726;52.328;10.552;2023-05-07T05:59:54;10.45;;;6.32;;
21272;SDS011;36726;52.328;10.552;2023-05-07T06:02:22;9.57;;;6.60;;
21272;SDS011;36726;52.328;10.552;2023-05-07T06:04:49;10.80;;;7.10;;
21272;SDS011;36726;52.328;10.552;2023-05-07T06:07:18;10.60;;;7.25;;
21272;SDS011;36726;52.328;10.552;2023-05-07T06:09:45;8.90;;;6.32;;
21272;SDS011;36726;52.328;10.552;2023-05-07T06:12:12;9.18;;;6.25;;
21272;SDS011;36726;52.328;10.552;2023-05-07T06:14:38;9.50;;;5.97;;
21272;SDS011;36726;52.328;10.552;2023-05-07T06:17:06;8.63;;;6.30;;
21272;SDS011;36726;52.328;10.552;2023-05-07T06:19:33;10.95;;;6.60;;
21272;SDS011;36726;52.328;10.552;2023-05-07T06:21:59;7.85;;;6.07;;
21272;SDS011;36726;52.328;10.552;2023-05-07T06:24:29;8.73;;;6.40;;
21272;SDS011;36726;52.328;10.552;2023-05-07T06:26:56;10.35;;;6.50;;
21272;SDS011;36726;52.328;10.552;2023-05-07T06:29:25;9.43;;;6.13;;
21272;SDS011;36726;52.328;10.552;2023-05-07T06:31:52;8.55;;;5.78;;
21272;SDS011;36726;52.328;10.552;2023-05-07T06:34:21;6.88;;;5.25;;
21272;SDS011;36726;52.328;10.552;2023-05-07T06:36:47;8.48;;;5.80;;
21272;SDS011;36726;52.328;10.552;2023-05-07T06:39:24;7.55;;;5.53;;
21272;SDS011;36726;52.328;10.552;2023-05-07T06:41:51;5.88;;;5.00;;
21272;SDS011;36726;52.328;10.552;2023-05-07T06:44:24;8.18;;;5.45;;
21272;SDS011;36726;52.328;10.552;2023-05-07T06:47:03;7.28;;;5.65;;
21272;SDS011;36726;52.328;10.552;2023-05-07T06:49:31;8.85;;;5.88;;
21272;SDS011;36726;52.328;10.552;2023-05-07T06:51:58;9.90;;;5.90;;
21272;SDS011;36726;52.328;10.552;2023-05-07T06:54:25;9.30;;;6.13;;
21272;SDS011;36726;52.328;10.552;2023-05-07T06:56:52;8.40;;;5.63;;
21272;SDS011;36726;52.328;10.552;2023-05-07T06:59:18;9.55;;;6.40;;
21272;SDS011;36726;52.328;10.552;2023-05-07T07:01:45;9.85;;;6.20;;
21272;SDS011;36726;52.328;10.552;2023-05-07T07:04:13;9.07;;;6.03;;
21272;SDS011;36726;52.328;10.552;2023-05-07T07:06:41;7.28;;;5.40;;
21272;SDS011;36726;52.328;10.552;2023-05-07T07:09:11;8.75;;;5.82;;
21272;SDS011;36726;52.328;10.552;2023-05-07T07:11:39;6.82;;;4.88;;
21272;SDS011;36726;52.328;10.552;2023-05-07T07:14:06;7.82;;;5.38;;
21272;SDS011;36726;52.328;10.552;2023-05-07T07:16:38;8.60;;;5.85;;
21272;SDS011;36726;52.328;10.552;2023-05-07T07:19:05;12.10;;;6.65;;
21272;SDS011;36726;52.328;10.552;2023-05-07T07:21:31;8.73;;;5.78;;
21272;SDS011;36726;52.328;10.552;2023-05-07T07:23:58;8.90;;;5.90;;
21272;SDS011;36726;52.328;10.552;2023-05-07T07:26:25;7.70;;;5.65;;
21272;SDS011;36726;52.328;10.552;2023-05-07T07:28:51;8.82;;;5.72;;
21272;SDS011;36726;52.328;10.552;2023-05-07T07:31:20;8.23;;;5.57;;
21272;SDS011;36726;52.328;10.552;2023-05-07T07:33:49;9.27;;;5.80;;
21272;SDS011;36726;52.328;10.552;2023-05-07T07:36:18;8.25;;;5.80;;
21272;SDS011;36726;52.328;10.552;2023-05-07T07:38:47;7.88;;;5.53;;
21272;SDS011;36726;52.328;10.552;2023-05-07T07:41:15;11.32;;;5.97;;
21272;SDS011;36726;52.328;10.552;2023-05-07T07:43:42;7.53;;;5.20;;
21272;SDS011;36726;52.328;10.552;2023-05-07T07:46:09;8.85;;;6.30;;
21272;SDS011;36726;52.328;10.552;2023-05-07T07:48:36;7.28;;;5.47;;
21272;SDS011;36726;52.328;10.552;2023-05-07T07:51:03;8.93;;;5.90;;
21272;SDS011;36726;52.328;10.552;2023-05-07T07:53:30;7.45;;;5.65;;
21272;SDS011;36726;52.328;10.552;2023-05-07T07:55:57;8.88;;;5.57;;
21272;SDS011;36726;52.328;10.552;2023-05-07T07:58:27;7.95;;;5.22;;
21272;SDS011;36726;52.328;10.552;2023-05-07T08:00:54;7.78;;;5.72;;
21272;SDS011;36726;52.328;10.552;2023-05-07T08:03:23;12.02;;;6.20;;
21272;SDS011;36726;52.328;10.552;2023-05-07T08:05:53;7.32;;;5.45;;
21272;SDS011;36726;52.328;10.552;2023-05-07T08:08:20;6.78;;;4.93;;
21272;SDS011;36726;52.328;10.552;2023-05-07T08:10:48;8.25;;;5.45;;
21272;SDS011;36726;52.328;10.552;2023-05-07T08:13:24;8.48;;;5.65;;
21272;SDS011;36726;52.328;10.552;2023-05-07T08:15:51;7.47;;;4.95;;
21272;SDS011;36726;52.328;10.552;2023-05-07T08:18:18;6.85;;;5.03;;
21272;SDS011;36726;52.328;10.552;2023-05-07T08:20:45;7.95;;;5.28;;
21272;SDS011;36726;52.328;10.552;2023-05-07T08:23:17;6.93;;;5.28;;
21272;SDS011;36726;52.328;10.552;2023-05-07T08:25:44;8.57;;;5.72;;
21272;SDS011;36726;52.328;10.552;2023-05-07T08:28:12;8.55;;;5.72;;
21272;SDS011;36726;52.328;10.552;2023-05-07T08:30:39;9.00;;;6.43;;
21272;SDS011;36726;52.328;10.552;2023-05-07T08:33:08;9.52;;;6.68;;
21272;SDS011;36726;52.328;10.552;2023-05-07T08:35:35;7.88;;;6.13;;
21272;SDS011;36726;52.328;10.552;2023-05-07T08:38:02;8.65;;;6.32;;
21272;SDS011;36726;52.328;10.552;2023-05-07T08:40:29;9.38;;;6.70;;
21272;SDS011;36726;52.328;10.552;2023-05-07T08:43:02;9.85;;;6.20;;
21272;SDS011;36726;52.328;10.552;2023-05-07T08:45:31;8.30;;;6.00;;
21272;SDS011;36726;52.328;10.552;2023-05-07T08:48:00;8.45;;;6.18;;
21272;SDS011;36726;52.328;10.552;2023-05-07T08:50:35;7.20;;;5.57;;
21272;SDS011;36726;52.328;10.552;2023-05-07T08:53:03;8.57;;;5.88;;
21272;SDS011;36726;52.328;10.552;2023-05-07T08:55:31;7.40;;;5.43;;
21272;SDS011;36726;52.328;10.552;2023-05-07T08:57:57;7.35;;;5.32;;
21272;SDS011;36726;52.328;10.552;2023-05-07T09:00:28;7.85;;;5.78;;
21272;SDS011;36726;52.328;10.552;2023-05-07T09:02:55;6.45;;;5.28;;
21272;SDS011;36726;52.328;10.552;2023-05-07T09:05:22;9.88;;;5.60;;
21272;SDS011;36726;52.328;10.552;2023-05-07T09:07:49;7.32;;;5.38;;
21272;SDS011;36726;52.328;10.552;2023-05-07T09:10:20;7.25;;;5.40;;
21272;SDS011;36726;52.328;10.552;2023-05-07T09:12:48;7.05;;;5.20;;
21272;SDS011;36726;52.328;10.552;2023-05-07T09:15:17;7.15;;;5.65;;
21272;SDS011;36726;52.328;10.552;2023-05-07T09:17:44;7.15;;;5.10;;
21272;SDS011;36726;52.328;10.552;2023-05-07T09:20:11;9.30;;;5.78;;
21272;SDS011;36726;52.328;10.552;2023-05-07T09:22:39;6.80;;;5.22;;
21272;SDS011;36726;52.328;10.552;2023-05-07T09:25:09;7.65;;;5.47;;
21272;SDS011;36726;52.328;10.552;2023-05-07T09:27:38;8.75;;;5.35;;
21272;SDS011;36726;52.328;10.552;2023-05-07T09:30:05;8.10;;;4.65;;
21272;SDS011;36726;52.328;10.552;2023-05-07T09:32:34;8.57;;;5.20;;
21272;SDS011;36726;52.328;10.552;2023-05-07T09:35:05;6.45;;;4.53;;
21272;SDS011;36726;52.328;10.552;2023-05-07T09:37:33;6.13;;;4.82;;
21272;SDS011;36726;52.328;10.552;2023-05-07T09:40:00;8.00;;;4.90;;
21272;SDS011;36726;52.328;10.552;2023-05-07T09:42:29;10.68;;;4.75;;
21272;SDS011;36726;52.328;10.552;2023-05-07T09:44:59;6.38;;;4.57;;
21272;SDS011;36726;52.328;10.552;2023-05-07T09:47:32;7.65;;;4.47;;
21272;SDS011;36726;52.328;10.552;2023-05-07T09:50:01;6.10;;;4.32;;
21272;SDS011;36726;52.328;10.552;2023-05-07T09:52:32;6.97;;;4.65;;
21272;SDS011;36726;52.328;10.552;2023-05-07T09:55:03;7.53;;;4.80;;
21272;SDS011;36726;52.328;10.552;2023-05-07T09:57:32;4.90;;;3.60;;
21272;SDS011;36726;52.328;10.552;2023-05-07T10:00:04;6.50;;;4.47;;
21272;SDS011;36726;52.328;10.552;2023-05-07T10:02:46;6.32;;;3.90;;
21272;SDS011;36726;52.328;10.552;2023-05-07T10:05:26;6.65;;;4.70;;
21272;SDS011;36726;52.328;10.552;2023-05-07T10:07:56;5.47;;;4.35;;
21272;SDS011;36726;52.328;10.552;2023-05-07T10:10:24;5.65;;;4.25;;
21272;SDS011;36726;52.328;10.552;2023-05-07T10:12:52;8.25;;;4.25;;
21272;SDS011;36726;52.328;10.552;2023-05-07T10:15:27;7.20;;;5.07;;
21272;SDS011;36726;52.328;10.552;2023-05-07T10:17:57;6.82;;;4.78;;
21272;SDS011;36726;52.328;10.552;2023-05-07T10:20:25;7.05;;;4.55;;
21272;SDS011;36726;52.328;10.552;2023-05-07T10:22:54;8.40;;;4.32;;
21272;SDS011;36726;52.328;10.552;2023-05-07T10:25:30;7.45;;;5.00;;
21272;SDS011;36726;52.328;10.552;2023-05-07T10:28:06;6.20;;;4.32;;
21272;SDS011;36726;52.328;10.552;2023-05-07T10:33:56;6.13;;;4.13;;
21272;SDS011;36726;52.328;10.552;2023-05-07T10:36:24;6.43;;;4.18;;
21272;SDS011;36726;52.328;10.552;2023-05-07T10:38:53;5.35;;;3.85;;
21272;SDS011;36726;52.328;10.552;2023-05-07T10:41:20;5.63;;;3.50;;
21272;SDS011;36726;52.328;10.552;2023-05-07T10:43:48;3.70;;;3.05;;
21272;SDS011;36726;52.328;10.552;2023-05-07T10:46:28;4.60;;;2.83;;
21272;SDS011;36726;52.328;10.552;2023-05-07T10:49:12;5.65;;;3.58;;
21272;SDS011;36726;52.328;10.552;2023-05-07T11:04:23;4.20;;;2.92;;
21272;SDS011;36726;52.328;10.552;2023-05-07T11:07:26;3.90;;;3.13;;
21272;SDS011;36726;52.328;10.552;2023-05-07T11:09:59;2.92;;;2.65;;
21272;SDS011;36726;52.328;10.552;2023-05-07T11:12:54;2.85;;;2.55;;
21272;SDS011;36726;52.328;10.552;2023-05-07T11:15:37;9.23;;;3.25;;
21272;SDS011;36726;52.328;10.552;2023-05-07T11:18:16;4.47;;;3.08;;
21272;SDS011;36726;52.328;10.552;2023-05-07T11:26:24;3.88;;;2.95;;
21272;SDS011;36726;52.328;10.552;2023-05-07T11:28:52;4.07;;;3.28;;
21272;SDS011;36726;52.328;10.552;2023-05-07T11:31:25;5.28;;;3.78;;
21272;SDS011;36726;52.328;10.552;2023-05-07T11:33:57;4.88;;;3.53;;
21272;SDS011;36726;52.328;10.552;2023-05-07T11:36:24;4.63;;;3.55;;
21272;SDS011;36726;52.328;10.552;2023-05-07T11:38:54;5.18;;;3.55;;
21272;SDS011;36726;52.328;10.552;2023-05-07T11:41:20;5.90;;;4.00;;
21272;SDS011;36726;52.328;10.552;2023-05-07T11:43:55;5.78;;;3.58;;
21272;SDS011;36726;52.328;10.552;2023-05-07T11:46:23;7.93;;;4.03;;
21272;SDS011;36726;52.328;10.552;2023-05-07T11:48:50;6.07;;;4.88;;
21272;SDS011;36726;52.328;10.552;2023-05-07T11:51:20;7.18;;;4.60;;
21272;SDS011;36726;52.328;10.552;2023-05-07T11:53:49;6.93;;;4.90;;
21272;SDS011;36726;52.328;10.552;2023-05-07T11:56:17;5.93;;;4.60;;
21272;SDS011;36726;52.328;10.552;2023-05-07T11:58:45;6.28;;;4.80;;
21272;SDS011;36726;52.328;10.552;2023-05-07T12:01:13;5.97;;;3.80;;
21272;SDS011;36726;52.328;10.552;2023-05-07T12:03:42;7.93;;;3.92;;
21272;SDS011;36726;52.328;10.552;2023-05-07T12:06:13;6.35;;;4.95;;
21272;SDS011;36726;52.328;10.552;2023-05-07T12:08:41;6.97;;;4.97;;
21272;SDS011;36726;52.328;10.552;2023-05-07T12:11:13;7.85;;;5.10;;
21272;SDS011;36726;52.328;10.552;2023-05-07T12:13:48;6.18;;;4.63;;
21272;SDS011;36726;52.328;10.552;2023-05-07T12:16:17;6.00;;;4.97;;
21272;SDS011;36726;52.328;10.552;2023-05-07T12:18:45;7.72;;;4.78;;
21272;SDS011;36726;52.328;10.552;2023-05-07T12:21:12;6.32;;;4.30;;
21272;SDS011;36726;52.328;10.552;2023-05-07T12:23:39;5.07;;;3.88;;
21272;SDS011;36726;52.328;10.552;2023-05-07T12:26:06;8.07;;;4.63;;
21272;SDS011;36726;52.328;10.552;2023-05-07T12:28:37;5.68;;;3.72;;
21272;SDS011;36726;52.328;10.552;2023-05-07T12:31:05;4.40;;;3.47;;
21272;SDS011;36726;52.328;10.552;2023-05-07T12:33:32;7.30;;;3.80;;
21272;SDS011;36726;52.328;10.552;2023-05-07T12:36:05;5.50;;;3.72;;
21272;SDS011;36726;52.328;10.552;2023-05-07T12:38:37;6.30;;;3.30;;
21272;SDS011;36726;52.328;10.552;2023-05-07T12:41:05;3.97;;;3.63;;
21272;SDS011;36726;52.328;10.552;2023-05-07T12:43:33;5.45;;;3.65;;
21272;SDS011;36726;52.328;10.552;2023-05-07T12:46:01;5.07;;;3.42;;
21272;SDS011;36726;52.328;10.552;2023-05-07T12:48:32;3.63;;;3.33;;
21272;SDS011;36726;52.328;10.552;2023-05-07T12:51:00;6.18;;;4.00;;
21272;SDS011;36726;52.328;10.552;2023-05-07T12:53:28;5.72;;;3.63;;
21272;SDS011;36726;52.328;10.552;2023-05-07T12:55:58;4.85;;;3.65;;
21272;SDS011;36726;52.328;10.552;2023-05-07T12:58:27;4.07;;;3.42;;
21272;SDS011;36726;52.328;10.552;2023-05-07T13:01:00;4.68;;;3.22;;
21272;SDS011;36726;52.328;10.552;2023-05-07T13:03:28;4.10;;;2.70;;
21272;SDS011;36726;52.328;10.552;2023-05-07T13:05:58;4.50;;;3.22;;
21272;SDS011;36726;52.328;10.552;2023-05-07T13:08:27;3.45;;;2.90;;
21272;SDS011;36726;52.328;10.552;2023-05-07T13:10:56;3.92;;;3.03;;
21272;SDS011;36726;52.328;10.552;2023-05-07T13:13:24;3.72;;;2.90;;
21272;SDS011;36726;52.328;10.552;2023-05-07T13:15:54;5.35;;;2.97;;
21272;SDS011;36726;52.328;10.552;2023-05-07T13:18:20;4.53;;;3.47;;
21272;SDS011;36726;52.328;10.552;2023-05-07T13:20:47;5.18;;;3.30;;
21272;SDS011;36726;52.328;10.552;2023-05-07T13:23:14;4.80;;;3.17;;
21272;SDS011;36726;52.328;10.552;2023-05-07T13:25:40;5.32;;;3.10;;
21272;SDS011;36726;52.328;10.552;2023-05-07T13:28:07;5.05;;;3.50;;
21272;SDS011;36726;52.328;10.552;2023-05-07T13:30:36;3.53;;;2.80;;
21272;SDS011;36726;52.328;10.552;2023-05-07T13:33:03;3.90;;;2.70;;
21272;SDS011;36726;52.328;10.552;2023-05-07T13:35:30;3.13;;;2.78;;
21272;SDS011;36726;52.328;10.552;2023-05-07T13:37:57;4.93;;;2.90;;
21272;SDS011;36726;52.328;10.552;2023-05-07T13:40:24;3.05;;;2.53;;
21272;SDS011;36726;52.328;10.552;2023-05-07T13:42:50;4.47;;;3.25;;
21272;SDS011;36726;52.328;10.552;2023-05-07T13:45:17;4.40;;;2.95;;
21272;SDS011;36726;52.328;10.552;2023-05-07T13:47:45;4.00;;;2.97;;
21272;SDS011;36726;52.328;10.552;2023-05-07T13:50:13;4.63;;;2.90;;
21272;SDS011;36726;52.328;10.552;2023-05-07T13:52:40;4.93;;;3.45;;
21272;SDS011;36726;52.328;10.552;2023-05-07T13:55:12;5.30;;;3.30;;
21272;SDS011;36726;52.328;10.552;2023-05-07T13:57:38;3.67;;;3.30;;
21272;SDS011;36726;52.328;10.552;2023-05-07T14:00:05;4.20;;;3.58;;
21272;SDS011;36726;52.328;10.552;2023-05-07T14:02:40;5.38;;;3.50;;
21272;SDS011;36726;52.328;10.552;2023-05-07T14:05:07;3.78;;;3.28;;
21272;SDS011;36726;52.328;10.552;2023-05-07T14:07:35;4.40;;;3.15;;
21272;SDS011;36726;52.328;10.552;2023-05-07T14:10:02;4.97;;;3.53;;
21272;SDS011;36726;52.328;10.552;2023-05-07T14:12:29;5.10;;;3.50;;
21272;SDS011;36726;52.328;10.552;2023-05-07T14:14:56;4.38;;;3.40;;
21272;SDS011;36726;52.328;10.552;2023-05-07T14:17:22;4.32;;;3.47;;
21272;SDS011;36726;52.328;10.552;2023-05-07T14:19:52;4.50;;;3.40;;
21272;SDS011;36726;52.328;10.552;2023-05-07T14:22:22;3.50;;;3.20;;
21272;SDS011;36726;52.328;10.552;2023-05-07T14:24:49;6.07;;;3.53;;
21272;SDS011;36726;52.328;10.552;2023-05-07T14:27:31;7.45;;;3.63;;
21272;SDS011;36726;52.328;10.552;2023-05-07T14:29:58;6.97;;;3.47;;
21272;SDS011;36726;52.328;10.552;2023-05-07T14:32:25;5.38;;;3.50;;
21272;SDS011;36726;52.328;10.552;2023-05-07T14:34:51;6.43;;;4.07;;
21272;SDS011;36726;52.328;10.552;2023-05-07T14:37:18;3.97;;;3.33;;
21272;SDS011;36726;52.328;10.552;2023-05-07T14:39:46;4.10;;;3.40;;
21272;SDS011;36726;52.328;10.552;2023-05-07T14:42:16;6.50;;;3.80;;
21272;SDS011;36726;52.328;10.552;2023-05-07T14:44:44;4.43;;;3.42;;
21272;SDS011;36726;52.328;10.552;2023-05-07T14:47:12;4.10;;;3.20;;
21272;SDS011;36726;52.328;10.552;2023-05-07T14:49:39;7.07;;;3.92;;
21272;SDS011;36726;52.328;10.552;2023-05-07T14:52:07;3.92;;;3.30;;
21272;SDS011;36726;52.328;10.552;2023-05-07T14:54:36;4.90;;;3.80;;
21272;SDS011;36726;52.328;10.552;2023-05-07T14:57:05;6.03;;;3.53;;
21272;SDS011;36726;52.328;10.552;2023-05-07T14:59:33;5.68;;;3.50;;